createdAt,value
2018-07-26T00:00:08.668Z,99694.06
2018-07-26T00:02:36.293Z,99700.55
2018-07-26T00:05:04.153Z,99701.13
2018-07-26T00:07:31.868Z,99698.11
2018-07-26T00:10:00.549Z,99698.06
2018-07-26T00:12:28.186Z,99702.57
2018-07-26T00:14:55.861Z,99697.49
2018-07-26T00:17:23.501Z,99700.97
2018-07-26T00:19:51.204Z,99703.64
2018-07-26T00:22:18.817Z,99702.53
2018-07-26T00:24:46.486Z,99704.40
2018-07-26T00:27:14.162Z,99706.54
2018-07-26T00:29:41.749Z,99710.72
2018-07-26T00:32:09.464Z,99713.11
2018-07-26T00:34:37.117Z,99709.49
2018-07-26T00:37:04.978Z,99709.81
2018-07-26T00:39:32.660Z,99711.73
2018-07-26T00:42:00.238Z,99707.23
2018-07-26T00:44:27.861Z,99720.28
2018-07-26T00:46:55.536Z,99713.00
2018-07-26T00:49:23.116Z,99709.35
2018-07-26T00:51:50.787Z,99715.47
2018-07-26T00:54:18.377Z,99712.69
2018-07-26T00:56:46.012Z,99716.16
2018-07-26T00:59:13.626Z,99716.64
2018-07-26T01:01:41.211Z,99713.83
2018-07-26T01:04:08.917Z,99715.48
2018-07-26T01:06:36.541Z,99725.23
2018-07-26T01:09:08.493Z,99724.50
2018-07-26T01:11:36.278Z,99719.36
2018-07-26T01:14:03.997Z,99714.42
2018-07-26T01:16:31.706Z,99713.01
2018-07-26T01:18:59.350Z,99713.98
2018-07-26T01:21:26.957Z,99721.30
2018-07-26T01:23:54.621Z,99720.10
2018-07-26T01:26:22.292Z,99722.83
2018-07-26T01:28:49.928Z,99713.45
2018-07-26T01:31:17.589Z,99715.16
2018-07-26T01:33:45.162Z,99714.94
2018-07-26T01:36:12.761Z,99709.21
2018-07-26T01:38:40.568Z,99709.95
2018-07-26T01:41:08.257Z,99717.55
2018-07-26T01:44:39.352Z,99712.14
2018-07-26T01:47:07.101Z,99712.83
2018-07-26T01:49:34.732Z,99711.34
2018-07-26T01:52:02.423Z,99709.56
2018-07-26T01:54:30.061Z,99708.95
2018-07-26T01:56:57.688Z,99705.27
2018-07-26T01:59:25.414Z,99703.61
2018-07-26T02:01:53.026Z,99706.08
2018-07-26T02:04:20.697Z,99700.09
2018-07-26T02:06:48.324Z,99697.77
2018-07-26T02:09:15.920Z,99702.70
2018-07-26T02:11:43.668Z,99707.95
2018-07-26T02:14:24.120Z,99702.80
2018-07-26T02:16:51.745Z,99708.14
2018-07-26T02:19:19.377Z,99711.13
2018-07-26T02:21:46.970Z,99708.19
2018-07-26T02:24:14.664Z,99703.72
2018-07-26T02:26:42.373Z,99705.45
2018-07-26T02:29:10.049Z,99709.13
2018-07-26T02:31:37.715Z,99711.08
2018-07-26T02:34:05.433Z,99709.82
2018-07-26T02:36:33.106Z,99708.92
2018-07-26T02:39:01.041Z,99717.80
2018-07-26T02:41:28.648Z,99717.19
2018-07-26T02:43:56.325Z,99714.56
2018-07-26T02:46:24.000Z,99709.63
2018-07-26T02:48:51.673Z,99712.73
2018-07-26T02:53:46.487Z,99714.28
2018-07-26T02:56:14.247Z,99722.33
2018-07-26T02:58:41.845Z,99720.83
2018-07-26T03:01:09.460Z,99714.89
2018-07-26T03:03:37.082Z,99720.03
2018-07-26T03:06:04.785Z,99718.09
2018-07-26T03:08:32.383Z,99717.63
2018-07-26T03:11:00.133Z,99719.77
2018-07-26T03:13:27.808Z,99718.59
2018-07-26T03:15:55.528Z,99723.69
2018-07-26T03:18:23.156Z,99726.66
2018-07-26T03:20:50.889Z,99724.55
2018-07-26T03:23:18.482Z,99725.08
2018-07-26T03:25:46.102Z,99724.25
2018-07-26T03:28:13.776Z,99724.55
2018-07-26T03:30:41.516Z,99727.23
2018-07-26T03:33:09.141Z,99731.59
2018-07-26T03:35:36.809Z,99726.79
2018-07-26T03:38:04.885Z,99731.22
2018-07-26T03:40:32.581Z,99726.28
2018-07-26T03:43:00.192Z,99731.11
2018-07-26T03:45:27.826Z,99734.39
2018-07-26T03:47:55.553Z,99734.42
2018-07-26T03:50:23.201Z,99733.77
2018-07-26T03:52:50.946Z,99735.72
2018-07-26T03:55:18.469Z,99735.83
2018-07-26T03:57:46.119Z,99741.56
2018-07-26T04:00:13.761Z,99742.25
2018-07-26T04:02:41.469Z,99744.16
2018-07-26T04:05:09.104Z,99745.88
2018-07-26T04:07:36.788Z,99749.30
2018-07-26T04:10:04.716Z,99741.55
2018-07-26T04:12:32.382Z,99746.88
2018-07-26T04:15:00.035Z,99750.11
2018-07-26T04:17:27.709Z,99746.55
2018-07-26T04:19:56.412Z,99752.45
2018-07-26T04:22:24.092Z,99751.59
2018-07-26T04:24:51.697Z,99751.01
2018-07-26T04:27:19.392Z,99750.75
2018-07-26T04:29:47.081Z,99760.73
2018-07-26T04:32:14.986Z,99756.33
2018-07-26T04:34:42.669Z,99754.06
2018-07-26T04:37:10.311Z,99754.59
2018-07-26T04:39:38.613Z,99761.69
2018-07-26T04:42:06.353Z,99756.03
2018-07-26T04:44:34.046Z,99755.77
2018-07-26T04:47:01.770Z,99757.02
2018-07-26T04:49:29.398Z,99752.84
2018-07-26T04:51:57.055Z,99758.73
2018-07-26T04:54:24.716Z,99755.39
2018-07-26T04:56:52.376Z,99762.80
2018-07-26T04:59:21.019Z,99761.97
2018-07-26T05:01:48.901Z,99760.23
2018-07-26T05:04:16.561Z,99766.30
2018-07-26T05:06:44.241Z,99768.42
2018-07-26T05:09:12.544Z,99764.44
2018-07-26T05:11:40.501Z,99769.52
2018-07-26T05:14:08.213Z,99766.08
2018-07-26T05:16:36.052Z,99767.84
2018-07-26T05:19:04.027Z,99764.91
2018-07-26T05:21:31.866Z,99770.02
2018-07-26T05:23:59.951Z,99774.81
2018-07-26T05:26:27.866Z,99775.62
2018-07-26T05:28:55.525Z,99775.72
2018-07-26T05:31:23.316Z,99779.02
2018-07-26T05:33:50.971Z,99776.61
2018-07-26T05:36:18.701Z,99771.66
2018-07-26T05:38:46.346Z,99775.41
2018-07-26T05:41:14.001Z,99774.67
2018-07-26T05:43:41.656Z,99777.16
2018-07-26T05:46:09.315Z,99776.47
2018-07-26T05:48:36.997Z,99781.00
2018-07-26T05:51:04.782Z,99783.89
2018-07-26T05:53:32.448Z,99780.89
2018-07-26T05:56:00.170Z,99771.91
2018-07-26T05:58:27.854Z,99785.02
2018-07-26T06:00:55.606Z,99783.20
2018-07-26T06:03:23.357Z,99787.42
2018-07-26T06:05:51.015Z,99782.66
2018-07-26T06:08:18.654Z,99781.59
2018-07-26T06:10:46.359Z,99783.74
2018-07-26T06:13:13.979Z,99787.58
2018-07-26T06:15:41.677Z,99787.77
2018-07-26T06:18:09.685Z,99781.84
2018-07-26T06:20:37.345Z,99780.29
2018-07-26T06:23:05.366Z,99776.23
2018-07-26T06:25:33.001Z,99778.92
2018-07-26T06:28:00.685Z,99780.63
2018-07-26T06:30:28.329Z,99779.83
2018-07-26T06:32:56.391Z,99779.72
2018-07-26T06:35:24.038Z,99783.11
2018-07-26T06:37:51.666Z,99781.84
2018-07-26T06:40:19.353Z,99776.02
2018-07-26T06:42:47.125Z,99774.56
2018-07-26T06:45:14.817Z,99777.23
2018-07-26T06:47:42.510Z,99775.25
2018-07-26T06:50:11.542Z,99776.62
2018-07-26T06:52:39.577Z,99776.85
2018-07-26T06:55:07.377Z,99770.74
2018-07-26T06:57:35.050Z,99777.80
2018-07-26T07:00:04.938Z,99782.17
2018-07-26T07:02:32.669Z,99778.34
2018-07-26T07:05:00.309Z,99786.23
2018-07-26T07:07:28.014Z,99780.64
2018-07-26T07:09:55.646Z,99790.53
2018-07-26T07:12:23.346Z,99792.08
2018-07-26T07:14:51.169Z,99783.09
2018-07-26T07:17:18.850Z,99783.78
2018-07-26T07:19:46.601Z,99781.30
2018-07-26T07:22:14.394Z,99780.98
2018-07-26T07:24:42.175Z,99778.34
2018-07-26T07:27:09.903Z,99787.86
2018-07-26T07:29:37.549Z,99780.66
2018-07-26T07:32:05.338Z,99770.97
2018-07-26T07:34:33.040Z,99776.09
2018-07-26T07:37:00.690Z,99776.59
2018-07-26T07:39:28.410Z,99769.49
2018-07-26T07:41:56.129Z,99763.50
2018-07-26T07:44:23.873Z,99765.27
2018-07-26T07:46:52.817Z,99762.38
2018-07-26T07:49:20.453Z,99759.54
2018-07-26T07:51:48.240Z,99756.41
2018-07-26T07:54:16.589Z,99754.25
2018-07-26T07:56:44.325Z,99755.48
2018-07-26T07:59:12.159Z,99753.48
2018-07-26T08:01:46.721Z,99747.59
2018-07-26T08:04:14.409Z,99753.06
2018-07-26T08:06:42.890Z,99751.09
2018-07-26T08:09:11.345Z,99752.47
2018-07-26T08:11:39.198Z,99750.78
2018-07-26T08:14:07.606Z,99751.52
2018-07-26T08:16:35.309Z,99754.05
2018-07-26T08:19:02.982Z,99740.49
2018-07-26T08:21:30.686Z,99745.59
2018-07-26T08:23:58.384Z,99739.73
2018-07-26T08:26:26.135Z,99745.19
2018-07-26T08:29:02.105Z,99746.48
2018-07-26T08:31:29.854Z,99744.63
2018-07-26T08:33:57.522Z,99739.53
2018-07-26T08:36:25.305Z,99741.02
2018-07-26T08:38:52.965Z,99740.27
2018-07-26T08:41:20.849Z,99733.28
2018-07-26T08:43:48.589Z,99738.30
2018-07-26T08:46:16.357Z,99740.63
2018-07-26T08:48:44.124Z,99736.52
2018-07-26T08:51:11.896Z,99730.61
2018-07-26T08:53:39.659Z,99736.09
2018-07-26T08:56:07.666Z,99735.41
2018-07-26T08:58:35.512Z,99734.78
2018-07-26T09:01:03.397Z,99732.91
2018-07-26T09:03:31.157Z,99729.73
2018-07-26T09:05:59.469Z,99734.22
2018-07-26T09:08:27.342Z,99723.88
2018-07-26T09:10:55.107Z,99724.63
2018-07-26T09:13:22.909Z,99722.69
2018-07-26T09:15:50.526Z,99725.55
2018-07-26T09:20:58.290Z,99715.23
2018-07-26T09:23:26.150Z,99711.73
2018-07-26T09:25:53.862Z,99716.94
2018-07-26T09:28:22.150Z,99713.68
2018-07-26T09:30:52.914Z,99719.21
2018-07-26T09:33:20.670Z,99714.37
2018-07-26T09:35:48.328Z,99713.92
2018-07-26T09:38:16.255Z,99713.28
2018-07-26T09:40:44.214Z,99711.27
2018-07-26T09:43:11.891Z,99707.33
2018-07-26T09:45:39.641Z,99706.40
2018-07-26T09:48:07.438Z,99708.11
2018-07-26T09:50:35.141Z,99702.92
2018-07-26T09:53:02.918Z,99699.34
2018-07-26T09:55:30.618Z,99697.52
2018-07-26T09:57:58.332Z,99698.09
2018-07-26T10:00:31.755Z,99696.68
2018-07-26T10:02:59.446Z,99693.73
2018-07-26T10:05:27.243Z,99695.77
2018-07-26T10:07:54.927Z,99695.11
2018-07-26T10:10:50.978Z,99695.42
2018-07-26T10:13:18.706Z,99685.31
2018-07-26T10:15:46.423Z,99684.61
2018-07-26T10:18:14.135Z,99671.94
2018-07-26T10:20:41.910Z,99683.41
2018-07-26T10:23:09.655Z,99665.48
2018-07-26T10:25:37.378Z,99662.20
2018-07-26T10:28:05.391Z,99667.84
2018-07-26T10:30:33.110Z,99661.81
2018-07-26T10:33:00.822Z,99664.69
2018-07-26T10:35:28.503Z,99658.17
2018-07-26T10:37:56.196Z,99661.88
2018-07-26T10:40:24.385Z,99656.66
2018-07-26T10:42:52.174Z,99655.67
2018-07-26T10:45:19.874Z,99653.33
2018-07-26T10:47:47.582Z,99652.11
2018-07-26T10:50:15.298Z,99651.77
2018-07-26T10:52:43.088Z,99649.94
2018-07-26T10:55:10.770Z,99650.48
2018-07-26T10:57:38.642Z,99652.19
2018-07-26T11:00:07.708Z,99651.86
2018-07-26T11:02:35.751Z,99644.83
2018-07-26T11:05:04.510Z,99639.16
2018-07-26T11:07:32.231Z,99643.21
2018-07-26T11:10:00.191Z,99640.27
2018-07-26T11:12:27.949Z,99632.25
2018-07-26T11:15:05.425Z,99635.98
2018-07-26T11:17:33.108Z,99628.43
2018-07-26T11:20:00.911Z,99621.86
2018-07-26T11:22:28.659Z,99624.28
2018-07-26T11:24:56.402Z,99628.87
2018-07-26T11:27:25.290Z,99624.72
2018-07-26T11:29:53.123Z,99617.44
2018-07-26T11:32:21.014Z,99621.03
2018-07-26T11:34:48.722Z,99617.63
2018-07-26T11:37:16.519Z,99613.27
2018-07-26T11:39:44.302Z,99603.42
2018-07-26T11:42:12.013Z,99603.59
2018-07-26T11:44:39.760Z,99599.06
2018-07-26T11:47:07.682Z,99589.69
2018-07-26T11:49:35.607Z,99593.30
2018-07-26T11:52:03.473Z,99591.11
2018-07-26T11:54:31.153Z,99587.64
2018-07-26T11:56:58.945Z,99589.05
2018-07-26T11:59:26.714Z,99575.50
2018-07-26T12:01:54.524Z,99582.08
2018-07-26T12:04:22.298Z,99573.24
2018-07-26T12:06:49.991Z,99577.71
2018-07-26T12:09:17.793Z,99568.13
2018-07-26T12:11:45.532Z,99570.56
2018-07-26T12:14:13.252Z,99565.37
2018-07-26T12:16:40.934Z,99557.24
2018-07-26T12:19:08.664Z,99559.56
2018-07-26T12:21:36.378Z,99553.02
2018-07-26T12:24:04.180Z,99561.08
2018-07-26T12:26:31.898Z,99552.38
2018-07-26T12:28:59.701Z,99550.61
2018-07-26T12:31:27.419Z,99547.90
2018-07-26T12:33:55.128Z,99544.53
2018-07-26T12:36:22.882Z,99553.63
2018-07-26T12:38:50.577Z,99553.13
2018-07-26T12:41:18.435Z,99551.11
2018-07-26T12:43:46.305Z,99544.17
2018-07-26T12:46:14.011Z,99540.52
2018-07-26T12:48:42.599Z,99529.47
2018-07-26T12:51:10.344Z,99532.75
2018-07-26T12:53:38.084Z,99526.31
2018-07-26T12:56:05.893Z,99521.23
2018-07-26T12:58:33.611Z,99516.82
2018-07-26T13:01:01.396Z,99513.05
2018-07-26T13:03:29.126Z,99512.59
2018-07-26T13:05:56.963Z,99505.36
2018-07-26T13:08:24.727Z,99507.48
2018-07-26T13:10:52.482Z,99502.50
2018-07-26T13:13:20.190Z,99506.91
2018-07-26T13:15:47.951Z,99509.25
2018-07-26T13:18:15.707Z,99506.30
2018-07-26T13:20:43.635Z,99502.63
2018-07-26T13:23:11.310Z,99499.33
2018-07-26T13:25:39.191Z,99492.19
2018-07-26T13:28:06.927Z,99495.89
2018-07-26T13:30:34.610Z,99490.35
2018-07-26T13:33:02.351Z,99473.13
2018-07-26T13:35:30.056Z,99486.36
2018-07-26T13:37:57.918Z,99497.04
2018-07-26T13:40:25.851Z,99490.84
2018-07-26T13:42:53.802Z,99494.20
2018-07-26T13:45:21.627Z,99489.95
2018-07-26T13:47:49.486Z,99495.56
2018-07-26T13:50:17.202Z,99486.25
2018-07-26T13:52:44.981Z,99485.93
2018-07-26T13:55:12.686Z,99481.83
2018-07-26T13:57:40.562Z,99480.74
2018-07-26T14:00:08.433Z,99475.67
2018-07-26T14:02:36.254Z,99476.70
2018-07-26T14:05:04.127Z,99480.80
2018-07-26T14:07:31.889Z,99478.10
2018-07-26T14:09:59.614Z,99476.72
2018-07-26T14:12:27.442Z,99482.43
2018-07-26T14:14:55.577Z,99473.01
2018-07-26T14:17:23.539Z,99477.10
2018-07-26T14:19:51.411Z,99466.81
2018-07-26T14:22:19.367Z,99471.92
2018-07-26T14:24:47.203Z,99469.37
2018-07-26T14:27:15.108Z,99466.52
2018-07-26T14:29:43.205Z,99472.69
2018-07-26T14:32:11.164Z,99472.69
2018-07-26T14:34:38.885Z,99472.91
2018-07-26T14:37:06.776Z,99467.77
2018-07-26T14:39:34.738Z,99469.22
2018-07-26T14:42:02.648Z,99460.39
2018-07-26T14:44:30.423Z,99464.45
2018-07-26T14:46:58.106Z,99467.52
2018-07-26T14:49:26.092Z,99472.86
2018-07-26T14:51:53.866Z,99464.91
2018-07-26T14:54:22.153Z,99468.66
2018-07-26T14:56:49.822Z,99466.09
2018-07-26T14:59:17.656Z,99466.78
2018-07-26T15:01:45.365Z,99468.61
2018-07-26T15:04:13.231Z,99463.69
2018-07-26T15:06:41.167Z,99461.36
2018-07-26T15:09:09.661Z,99466.20
2018-07-26T15:11:37.669Z,99465.23
2018-07-26T15:14:05.391Z,99463.44
2018-07-26T15:16:33.243Z,99460.13
2018-07-26T15:19:00.959Z,99460.78
2018-07-26T15:21:28.891Z,99458.45
2018-07-26T15:23:59.346Z,99451.93
2018-07-26T15:26:27.335Z,99450.91
2018-07-26T15:28:55.552Z,99452.08
2018-07-26T15:31:23.372Z,99456.67
2018-07-26T15:33:51.519Z,99457.11
2018-07-26T15:36:19.537Z,99462.91
2018-07-26T15:38:47.350Z,99459.34
2018-07-26T15:41:15.302Z,99457.11
2018-07-26T15:43:43.258Z,99459.94
2018-07-26T15:46:11.025Z,99460.47
2018-07-26T15:48:39.018Z,99457.94
2018-07-26T15:51:06.779Z,99458.34
2018-07-26T15:53:34.534Z,99462.35
2018-07-26T15:56:02.439Z,99459.02
2018-07-26T15:58:30.173Z,99452.48
2018-07-26T16:00:58.178Z,99449.38
2018-07-26T16:03:25.987Z,99458.72
2018-07-26T16:05:53.866Z,99453.73
2018-07-26T16:08:22.440Z,99451.75
2018-07-26T16:10:52.495Z,99453.11
2018-07-26T16:16:17.228Z,99441.72
2018-07-26T16:18:44.894Z,99448.33
2018-07-26T16:21:12.540Z,99448.92
2018-07-26T16:23:40.211Z,99457.95
2018-07-26T16:26:08.086Z,99453.90
2018-07-26T16:28:35.803Z,99456.89
2018-07-26T16:31:03.536Z,99451.00
2018-07-26T16:33:31.356Z,99457.79
2018-07-26T16:35:59.050Z,99456.25
2018-07-26T16:38:26.685Z,99448.45
2018-07-26T16:40:54.427Z,99451.34
2018-07-26T16:43:22.163Z,99451.77
2018-07-26T16:45:49.920Z,99457.27
2018-07-26T16:48:17.624Z,99453.05
2018-07-26T16:50:45.309Z,99452.48
2018-07-26T16:53:13.013Z,99458.50
2018-07-26T16:55:40.626Z,99456.19
2018-07-26T16:58:08.290Z,99460.48
2018-07-26T17:00:35.950Z,99462.56
2018-07-26T17:03:03.594Z,99459.08
2018-07-26T17:05:31.221Z,99451.48
2018-07-26T17:07:59.004Z,99457.28
2018-07-26T17:10:36.050Z,99457.06
2018-07-26T17:13:03.710Z,99456.69
2018-07-26T17:15:31.341Z,99451.59
2018-07-26T17:17:59.022Z,99454.66
2018-07-26T17:20:26.719Z,99449.80
2018-07-26T17:22:54.376Z,99462.38
2018-07-26T17:25:25.107Z,99467.69
2018-07-26T17:27:53.981Z,99467.47
2018-07-26T17:30:21.683Z,99467.57
2018-07-26T17:32:49.529Z,99461.13
2018-07-26T17:35:17.442Z,99466.05
2018-07-26T17:37:45.582Z,99462.19
2018-07-26T17:40:13.648Z,99460.92
2018-07-26T17:42:41.222Z,99467.64
2018-07-26T17:45:10.152Z,99461.72
2018-07-26T17:47:37.981Z,99467.68
2018-07-26T17:50:06.937Z,99470.83
2018-07-26T17:52:34.569Z,99472.49
2018-07-26T17:55:02.477Z,99473.63
2018-07-26T17:57:30.242Z,99482.33
2018-07-26T17:59:57.917Z,99478.02
2018-07-26T18:02:25.545Z,99479.14
2018-07-26T18:04:53.178Z,99481.59
2018-07-26T18:07:20.797Z,99485.91
2018-07-26T18:09:48.526Z,99486.49
2018-07-26T18:12:16.236Z,99488.53
2018-07-26T18:14:43.878Z,99499.16
2018-07-26T18:17:11.550Z,99488.39
2018-07-26T18:19:39.335Z,99488.10
2018-07-26T18:22:07.015Z,99495.73
2018-07-26T18:24:34.641Z,99498.44
2018-07-26T18:27:02.389Z,99494.24
2018-07-26T18:29:30.063Z,99496.23
2018-07-26T18:31:57.834Z,99496.86
2018-07-26T18:34:25.504Z,99499.34
2018-07-26T18:36:53.137Z,99508.25
2018-07-26T18:39:20.793Z,99502.59
2018-07-26T18:41:48.430Z,99509.31
2018-07-26T18:44:16.362Z,99510.45
2018-07-26T18:46:43.865Z,99513.21
2018-07-26T18:49:11.554Z,99512.03
2018-07-26T18:51:39.258Z,99518.34
2018-07-26T18:54:07.068Z,99516.69
2018-07-26T18:56:34.737Z,99523.40
2018-07-26T18:59:02.533Z,99524.59
2018-07-26T19:01:30.289Z,99526.90
2018-07-26T19:03:57.941Z,99527.78
2018-07-26T19:06:25.568Z,99531.86
2018-07-26T19:08:53.230Z,99528.94
2018-07-26T19:11:20.993Z,99534.18
2018-07-26T19:13:48.694Z,99543.59
2018-07-26T19:16:16.341Z,99547.66
2018-07-26T19:18:44.145Z,99541.42
2018-07-26T19:21:11.942Z,99547.96
2018-07-26T19:23:39.638Z,99547.97
2018-07-26T19:26:07.371Z,99552.03
2018-07-26T19:28:35.098Z,99560.82
2018-07-26T19:31:02.809Z,99564.38
2018-07-26T19:33:30.410Z,99567.48
2018-07-26T19:35:58.054Z,99564.28
2018-07-26T19:38:25.691Z,99566.28
2018-07-26T19:40:53.290Z,99573.08
2018-07-26T19:43:20.937Z,99569.80
2018-07-26T19:45:48.573Z,99582.69
2018-07-26T19:48:16.227Z,99571.73
2018-07-26T19:50:43.834Z,99575.72
2018-07-26T19:53:11.456Z,99587.80
2018-07-26T19:55:39.160Z,99591.08
2018-07-26T19:58:06.821Z,99590.94
2018-07-26T20:00:34.460Z,99600.70
2018-07-26T20:03:02.083Z,99600.62
2018-07-26T20:05:29.728Z,99601.97
2018-07-26T20:07:57.427Z,99605.36
2018-07-26T20:10:25.070Z,99601.97
2018-07-26T20:12:52.729Z,99606.17
2018-07-26T20:15:20.489Z,99606.83
2018-07-26T20:17:48.217Z,99605.72
2018-07-26T20:20:15.897Z,99604.61
2018-07-26T20:22:43.585Z,99599.39
2018-07-26T20:25:11.354Z,99609.02
2018-07-26T20:27:39.036Z,99597.20
2018-07-26T20:30:08.236Z,99601.21
2018-07-26T20:32:36.148Z,99605.48
2018-07-26T20:35:04.188Z,99608.06
2018-07-26T20:37:31.821Z,99614.53
2018-07-26T20:39:59.501Z,99618.38
2018-07-26T20:42:27.092Z,99621.72
2018-07-26T20:44:54.720Z,99625.66
2018-07-26T20:47:22.315Z,99624.36
2018-07-26T20:49:50.037Z,99629.80
2018-07-26T20:54:39.195Z,99631.08
2018-07-26T20:57:06.884Z,99635.91
2018-07-26T20:59:34.723Z,99630.63
2018-07-26T21:02:02.414Z,99632.34
2018-07-26T21:04:30.246Z,99632.77
2018-07-26T21:06:58.040Z,99630.42
2018-07-26T21:09:25.802Z,99629.63
2018-07-26T21:11:53.527Z,99634.73
2018-07-26T21:14:21.297Z,99629.03
2018-07-26T21:16:49.071Z,99633.59
2018-07-26T21:19:16.723Z,99631.81
2018-07-26T21:21:44.494Z,99645.59
2018-07-26T21:24:12.266Z,99646.23
2018-07-26T21:26:40.039Z,99648.15
2018-07-26T21:29:07.710Z,99647.56
2018-07-26T21:31:35.457Z,99650.40
2018-07-26T21:34:03.434Z,99647.80
2018-07-26T21:36:31.158Z,99653.94
2018-07-26T21:38:58.974Z,99652.48
2018-07-26T21:41:26.739Z,99648.20
2018-07-26T21:43:54.420Z,99647.97
2018-07-26T21:46:22.166Z,99648.95
2018-07-26T21:48:49.891Z,99648.27
2018-07-26T21:51:17.568Z,99652.89
2018-07-26T21:53:45.371Z,99652.69
2018-07-26T21:56:13.086Z,99655.69
2018-07-26T21:58:40.858Z,99658.86
2018-07-26T22:01:08.629Z,99657.83
2018-07-26T22:03:36.501Z,99661.56
2018-07-26T22:06:04.716Z,99654.89
2018-07-26T22:08:32.451Z,99657.81
2018-07-26T22:11:00.159Z,99652.19
2018-07-26T22:13:49.889Z,99654.09
2018-07-26T22:19:44.619Z,99649.81
2018-07-26T22:22:12.418Z,99654.09
2018-07-26T22:24:40.001Z,99650.35
2018-07-26T22:27:07.689Z,99650.89
2018-07-26T22:29:35.295Z,99652.22
2018-07-26T22:32:02.961Z,99651.17
2018-07-26T22:34:30.589Z,99644.47
2018-07-26T22:36:58.377Z,99645.80
2018-07-26T22:39:26.072Z,99647.94
2018-07-26T22:41:53.657Z,99650.89
2018-07-26T22:44:21.440Z,99655.45
2018-07-26T22:46:49.034Z,99658.13
2018-07-26T22:49:16.920Z,99656.78
2018-07-26T22:51:44.602Z,99654.11
2018-07-26T22:54:12.253Z,99653.31
2018-07-26T22:56:39.997Z,99654.66
2018-07-26T22:59:07.653Z,99657.06
2018-07-26T23:01:35.220Z,99654.09
2018-07-26T23:04:02.923Z,99653.31
2018-07-26T23:06:30.532Z,99653.56
2018-07-26T23:08:58.212Z,99657.59
2018-07-26T23:11:25.881Z,99651.70
2018-07-26T23:13:53.569Z,99650.89
2018-07-26T23:16:21.269Z,99657.57
2018-07-26T23:18:48.964Z,99653.78
2018-07-26T23:21:16.557Z,99658.59
2018-07-26T23:23:44.447Z,99662.60
2018-07-26T23:26:12.124Z,99659.40
2018-07-26T23:28:39.930Z,99659.45
2018-07-26T23:31:07.641Z,99658.39
2018-07-26T23:33:35.263Z,99661.08
2018-07-26T23:36:02.952Z,99662.90
2018-07-26T23:38:30.595Z,99656.75
2018-07-26T23:40:58.201Z,99656.53
2018-07-26T23:43:25.829Z,99651.66
2018-07-26T23:45:53.824Z,99652.70
2018-07-26T23:48:21.428Z,99651.59
2018-07-26T23:50:49.069Z,99650.75
2018-07-26T23:53:16.676Z,99652.66
2018-07-26T23:55:44.273Z,99650.45
2018-07-26T23:58:12.049Z,99648.11
